sensor_id;sensor_type;location;lat;lon;timestamp;pressure;altitude;pressure_sealevel;temperature;humidity
43298;BME280;28892;55.640;37.532;2023-04-02T00:01:05;98100.88;;;6.64;78.26
43298;BME280;28892;55.640;37.532;2023-04-02T00:06:33;98123.50;;;6.43;78.93
43298;BME280;28892;55.640;37.532;2023-04-02T00:09:01;98121.34;;;6.32;78.94
43298;BME280;28892;55.640;37.532;2023-04-02T00:11:35;98117.97;;;6.23;79.66
43298;BME280;28892;55.640;37.532;2023-04-02T00:14:03;98124.13;;;6.61;78.03
43298;BME280;28892;55.640;37.532;2023-04-02T00:16:30;98136.97;;;6.34;78.87
43298;BME280;28892;55.640;37.532;2023-04-02T00:19:03;98131.88;;;6.32;79.66
43298;BME280;28892;55.640;37.532;2023-04-02T00:21:33;98142.69;;;6.37;79.41
43298;BME280;28892;55.640;37.532;2023-04-02T00:24:02;98139.06;;;6.38;79.52
43298;BME280;28892;55.640;37.532;2023-04-02T00:26:36;98139.78;;;6.47;78.92
43298;BME280;28892;55.640;37.532;2023-04-02T00:29:06;98140.88;;;6.38;79.04
43298;BME280;28892;55.640;37.532;2023-04-02T00:31:32;98137.44;;;6.52;78.67
43298;BME280;28892;55.640;37.532;2023-04-02T00:34:01;98129.31;;;6.39;79.16
43298;BME280;28892;55.640;37.532;2023-04-02T00:36:31;98124.81;;;6.48;78.84
43298;BME280;28892;55.640;37.532;2023-04-02T00:38:59;98148.50;;;6.33;79.47
43298;BME280;28892;55.640;37.532;2023-04-02T00:41:28;98141.88;;;6.52;79.21
43298;BME280;28892;55.640;37.532;2023-04-02T00:43:59;98144.47;;;6.82;78.40
43298;BME280;28892;55.640;37.532;2023-04-02T00:46:29;98150.47;;;6.91;77.35
43298;BME280;28892;55.640;37.532;2023-04-02T00:49:00;98137.84;;;6.71;77.67
43298;BME280;28892;55.640;37.532;2023-04-02T00:52:11;98142.63;;;6.46;79.15
43298;BME280;28892;55.640;37.532;2023-04-02T00:54:47;98134.34;;;6.49;79.21
43298;BME280;28892;55.640;37.532;2023-04-02T00:57:20;98126.50;;;6.25;79.91
43298;BME280;28892;55.640;37.532;2023-04-02T00:59:57;98137.69;;;6.57;79.15
43298;BME280;28892;55.640;37.532;2023-04-02T01:02:32;98151.16;;;6.63;78.58
43298;BME280;28892;55.640;37.532;2023-04-02T01:05:01;98128.31;;;6.55;79.12
43298;BME280;28892;55.640;37.532;2023-04-02T01:10:41;98137.97;;;6.63;79.16
43298;BME280;28892;55.640;37.532;2023-04-02T01:24:10;98133.91;;;6.97;77.31
43298;BME280;28892;55.640;37.532;2023-04-02T01:31:29;98141.84;;;6.82;76.83
43298;BME280;28892;55.640;37.532;2023-04-02T01:33:58;98136.09;;;6.93;77.55
43298;BME280;28892;55.640;37.532;2023-04-02T01:41:46;98134.50;;;6.47;78.75
43298;BME280;28892;55.640;37.532;2023-04-02T01:44:44;98141.78;;;6.60;78.50
43298;BME280;28892;55.640;37.532;2023-04-02T01:47:14;98130.97;;;6.55;78.90
43298;BME280;28892;55.640;37.532;2023-04-02T01:49:42;98125.88;;;6.68;78.35
43298;BME280;28892;55.640;37.532;2023-04-02T01:52:15;98133.09;;;6.81;77.37
43298;BME280;28892;55.640;37.532;2023-04-02T01:54:43;98134.88;;;6.74;77.80
43298;BME280;28892;55.640;37.532;2023-04-02T01:57:09;98121.22;;;6.70;77.62
43298;BME280;28892;55.640;37.532;2023-04-02T01:59:35;98135.31;;;6.78;77.21
43298;BME280;28892;55.640;37.532;2023-04-02T02:02:05;98131.47;;;6.80;77.37
43298;BME280;28892;55.640;37.532;2023-04-02T02:04:35;98139.03;;;6.83;76.86
43298;BME280;28892;55.640;37.532;2023-04-02T02:07:02;98138.06;;;6.69;77.62
43298;BME280;28892;55.640;37.532;2023-04-02T02:09:32;98142.16;;;6.72;77.45
43298;BME280;28892;55.640;37.532;2023-04-02T02:12:02;98130.16;;;7.06;76.90
43298;BME280;28892;55.640;37.532;2023-04-02T02:14:29;98126.09;;;6.89;76.28
43298;BME280;28892;55.640;37.532;2023-04-02T02:17:27;98144.09;;;7.00;75.80
43298;BME280;28892;55.640;37.532;2023-04-02T02:19:57;98133.28;;;6.95;76.18
43298;BME280;28892;55.640;37.532;2023-04-02T02:22:36;98141.50;;;6.70;76.71
43298;BME280;28892;55.640;37.532;2023-04-02T02:25:06;98133.41;;;6.71;76.87
43298;BME280;28892;55.640;37.532;2023-04-02T02:33:22;98142.53;;;6.91;76.25
43298;BME280;28892;55.640;37.532;2023-04-02T02:35:56;98146.25;;;6.96;75.83
43298;BME280;28892;55.640;37.532;2023-04-02T02:38:47;98150.00;;;6.87;76.33
43298;BME280;28892;55.640;37.532;2023-04-02T02:41:29;98149.09;;;6.95;76.16
43298;BME280;28892;55.640;37.532;2023-04-02T02:44:09;98146.78;;;7.07;75.67
43298;BME280;28892;55.640;37.532;2023-04-02T02:46:43;98157.28;;;6.85;75.77
43298;BME280;28892;55.640;37.532;2023-04-02T02:49:15;98158.28;;;6.84;76.05
43298;BME280;28892;55.640;37.532;2023-04-02T02:51:49;98146.16;;;7.05;75.43
43298;BME280;28892;55.640;37.532;2023-04-02T02:54:26;98149.09;;;7.32;75.01
43298;BME280;28892;55.640;37.532;2023-04-02T02:56:56;98144.63;;;7.32;73.95
43298;BME280;28892;55.640;37.532;2023-04-02T02:59:27;98163.34;;;7.16;74.06
43298;BME280;28892;55.640;37.532;2023-04-02T03:01:54;98154.44;;;7.02;75.12
43298;BME280;28892;55.640;37.532;2023-04-02T03:04:22;98152.94;;;6.77;75.51
43298;BME280;28892;55.640;37.532;2023-04-02T03:06:51;98162.19;;;6.88;75.82
43298;BME280;28892;55.640;37.532;2023-04-02T03:15:03;98177.91;;;6.96;75.55
43298;BME280;28892;55.640;37.532;2023-04-02T03:18:10;98174.03;;;7.29;74.86
43298;BME280;28892;55.640;37.532;2023-04-02T03:20:44;98179.03;;;7.24;74.28
43298;BME280;28892;55.640;37.532;2023-04-02T03:23:23;98172.53;;;7.05;74.78
43298;BME280;28892;55.640;37.532;2023-04-02T03:28:29;98185.66;;;6.83;75.14
43298;BME280;28892;55.640;37.532;2023-04-02T03:31:01;98171.31;;;6.70;75.48
43298;BME280;28892;55.640;37.532;2023-04-02T03:33:57;98176.09;;;6.97;75.01
43298;BME280;28892;55.640;37.532;2023-04-02T03:36:33;98175.47;;;6.80;74.83
43298;BME280;28892;55.640;37.532;2023-04-02T03:39:22;98175.38;;;6.88;74.56
43298;BME280;28892;55.640;37.532;2023-04-02T03:42:02;98171.06;;;7.02;74.50
43298;BME280;28892;55.640;37.532;2023-04-02T03:50:02;98191.47;;;6.78;74.15
43298;BME280;28892;55.640;37.532;2023-04-02T03:52:34;98178.91;;;6.95;73.59
43298;BME280;28892;55.640;37.532;2023-04-02T03:55:10;98181.47;;;6.89;73.47
43298;BME280;28892;55.640;37.532;2023-04-02T04:00:34;98174.00;;;6.92;73.52
43298;BME280;28892;55.640;37.532;2023-04-02T04:03:11;98176.75;;;6.84;73.53
43298;BME280;28892;55.640;37.532;2023-04-02T04:05:56;98176.13;;;6.82;73.40
43298;BME280;28892;55.640;37.532;2023-04-02T04:08:32;98170.94;;;6.59;73.81
43298;BME280;28892;55.640;37.532;2023-04-02T04:11:03;98164.00;;;7.03;72.88
43298;BME280;28892;55.640;37.532;2023-04-02T04:13:54;98180.53;;;6.96;72.73
43298;BME280;28892;55.640;37.532;2023-04-02T04:16:38;98179.13;;;6.79;73.44
43298;BME280;28892;55.640;37.532;2023-04-02T04:22:08;98194.78;;;7.17;72.13
43298;BME280;28892;55.640;37.532;2023-04-02T04:24:37;98182.91;;;7.06;71.96
43298;BME280;28892;55.640;37.532;2023-04-02T04:27:44;98199.59;;;7.13;71.75
43298;BME280;28892;55.640;37.532;2023-04-02T04:30:27;98201.88;;;7.32;71.15
43298;BME280;28892;55.640;37.532;2023-04-02T04:33:04;98191.91;;;7.12;71.52
43298;BME280;28892;55.640;37.532;2023-04-02T04:35:37;98200.00;;;6.95;71.90
43298;BME280;28892;55.640;37.532;2023-04-02T04:38:13;98202.53;;;7.19;71.50
43298;BME280;28892;55.640;37.532;2023-04-02T04:40:44;98201.19;;;6.93;71.58
43298;BME280;28892;55.640;37.532;2023-04-02T04:46:05;98195.56;;;6.96;72.03
43298;BME280;28892;55.640;37.532;2023-04-02T04:51:23;98210.38;;;6.97;71.38
43298;BME280;28892;55.640;37.532;2023-04-02T04:53:52;98210.47;;;6.74;71.92
43298;BME280;28892;55.640;37.532;2023-04-02T04:56:27;98209.66;;;6.73;72.54
43298;BME280;28892;55.640;37.532;2023-04-02T04:59:13;98210.91;;;6.92;71.95
43298;BME280;28892;55.640;37.532;2023-04-02T05:01:48;98209.47;;;6.90;72.01
43298;BME280;28892;55.640;37.532;2023-04-02T05:04:25;98194.94;;;6.79;72.40
43298;BME280;28892;55.640;37.532;2023-04-02T05:07:04;98208.75;;;6.96;71.99
43298;BME280;28892;55.640;37.532;2023-04-02T05:09:39;98205.03;;;6.75;72.07
43298;BME280;28892;55.640;37.532;2023-04-02T05:12:20;98218.13;;;6.83;72.38
43298;BME280;28892;55.640;37.532;2023-04-02T05:15:27;98202.63;;;7.10;71.44
43298;BME280;28892;55.640;37.532;2023-04-02T05:18:22;98223.72;;;6.80;72.23
43298;BME280;28892;55.640;37.532;2023-04-02T05:23:36;98196.66;;;6.56;72.85
43298;BME280;28892;55.640;37.532;2023-04-02T05:26:10;98241.09;;;6.75;72.40
43298;BME280;28892;55.640;37.532;2023-04-02T05:29:19;98240.09;;;6.91;72.38
43298;BME280;28892;55.640;37.532;2023-04-02T05:31:59;98223.72;;;6.80;71.89
43298;BME280;28892;55.640;37.532;2023-04-02T05:34:41;98225.81;;;6.85;71.64
43298;BME280;28892;55.640;37.532;2023-04-02T05:37:20;98219.66;;;6.63;72.77
43298;BME280;28892;55.640;37.532;2023-04-02T05:39:54;98228.38;;;6.78;72.44
43298;BME280;28892;55.640;37.532;2023-04-02T05:42:34;98216.44;;;6.97;71.71
43298;BME280;28892;55.640;37.532;2023-04-02T05:47:47;98226.91;;;6.76;71.99
43298;BME280;28892;55.640;37.532;2023-04-02T05:53:12;98233.63;;;6.63;72.82
43298;BME280;28892;55.640;37.532;2023-04-02T05:55:55;98231.63;;;6.80;72.28
43298;BME280;28892;55.640;37.532;2023-04-02T05:58:34;98232.47;;;6.66;72.88
43298;BME280;28892;55.640;37.532;2023-04-02T06:01:16;98240.00;;;6.99;71.91
43298;BME280;28892;55.640;37.532;2023-04-02T06:07:21;98250.47;;;6.77;72.24
43298;BME280;28892;55.640;37.532;2023-04-02T06:10:09;98249.72;;;6.98;71.41
43298;BME280;28892;55.640;37.532;2023-04-02T06:13:09;98243.63;;;7.13;71.11
43298;BME280;28892;55.640;37.532;2023-04-02T06:15:40;98245.91;;;7.01;70.98
43298;BME280;28892;55.640;37.532;2023-04-02T06:18:17;98240.53;;;7.09;70.74
43298;BME280;28892;55.640;37.532;2023-04-02T06:20:45;98243.00;;;6.81;71.47
43298;BME280;28892;55.640;37.532;2023-04-02T06:23:15;98243.25;;;7.16;71.28
43298;BME280;28892;55.640;37.532;2023-04-02T06:25:50;98232.06;;;7.29;70.35
43298;BME280;28892;55.640;37.532;2023-04-02T06:28:26;98238.00;;;7.53;69.59
43298;BME280;28892;55.640;37.532;2023-04-02T06:31:00;98231.91;;;7.52;69.69
43298;BME280;28892;55.640;37.532;2023-04-02T06:33:34;98228.84;;;7.49;69.05
43298;BME280;28892;55.640;37.532;2023-04-02T06:36:03;98235.38;;;7.75;69.02
43298;BME280;28892;55.640;37.532;2023-04-02T06:38:39;98237.63;;;7.56;68.32
43298;BME280;28892;55.640;37.532;2023-04-02T06:41:19;98232.00;;;7.81;68.60
43298;BME280;28892;55.640;37.532;2023-04-02T06:44:44;98227.84;;;7.93;67.37
43298;BME280;28892;55.640;37.532;2023-04-02T06:47:46;98242.97;;;7.85;67.56
43298;BME280;28892;55.640;37.532;2023-04-02T06:50:34;98229.69;;;8.21;67.28
43298;BME280;28892;55.640;37.532;2023-04-02T06:53:20;98241.56;;;8.32;66.44
43298;BME280;28892;55.640;37.532;2023-04-02T06:58:52;98235.19;;;7.54;68.33
43298;BME280;28892;55.640;37.532;2023-04-02T07:01:26;98251.84;;;7.77;67.57
43298;BME280;28892;55.640;37.532;2023-04-02T07:03:57;98244.97;;;7.61;67.64
43298;BME280;28892;55.640;37.532;2023-04-02T07:06:38;98253.16;;;7.66;67.06
43298;BME280;28892;55.640;37.532;2023-04-02T07:09:04;98244.69;;;7.71;67.30
43298;BME280;28892;55.640;37.532;2023-04-02T07:11:33;98261.13;;;7.51;67.56
43298;BME280;28892;55.640;37.532;2023-04-02T07:14:02;98249.66;;;7.44;67.80
43298;BME280;28892;55.640;37.532;2023-04-02T07:16:32;98258.41;;;7.44;67.62
43298;BME280;28892;55.640;37.532;2023-04-02T07:19:05;98266.09;;;7.61;66.84
43298;BME280;28892;55.640;37.532;2023-04-02T07:21:36;98257.28;;;7.02;68.71
43298;BME280;28892;55.640;37.532;2023-04-02T07:24:02;98271.53;;;7.22;68.60
43298;BME280;28892;55.640;37.532;2023-04-02T07:26:28;98251.31;;;7.30;67.49
43298;BME280;28892;55.640;37.532;2023-04-02T07:29:18;98260.91;;;7.52;67.26
43298;BME280;28892;55.640;37.532;2023-04-02T07:31:57;98260.06;;;7.30;67.39
43298;BME280;28892;55.640;37.532;2023-04-02T07:34:23;98269.84;;;7.51;66.91
43298;BME280;28892;55.640;37.532;2023-04-02T07:36:49;98270.03;;;7.50;66.55
43298;BME280;28892;55.640;37.532;2023-04-02T07:39:15;98269.00;;;7.29;67.87
43298;BME280;28892;55.640;37.532;2023-04-02T07:41:57;98262.03;;;7.80;66.76
43298;BME280;28892;55.640;37.532;2023-04-02T07:44:31;98276.00;;;7.74;65.69
43298;BME280;28892;55.640;37.532;2023-04-02T07:46:57;98261.16;;;7.73;66.35
43298;BME280;28892;55.640;37.532;2023-04-02T07:49:23;98288.66;;;7.63;65.90
43298;BME280;28892;55.640;37.532;2023-04-02T07:51:55;98276.22;;;7.79;66.09
43298;BME280;28892;55.640;37.532;2023-04-02T07:54:21;98274.03;;;7.82;65.98
43298;BME280;28892;55.640;37.532;2023-04-02T07:56:56;98273.16;;;7.75;65.74
43298;BME280;28892;55.640;37.532;2023-04-02T07:59:25;98283.00;;;7.66;66.00
43298;BME280;28892;55.640;37.532;2023-04-02T08:01:59;98247.88;;;7.29;67.32
43298;BME280;28892;55.640;37.532;2023-04-02T08:04:28;98275.81;;;7.38;67.88
43298;BME280;28892;55.640;37.532;2023-04-02T08:07:06;98280.59;;;7.50;67.83
43298;BME280;28892;55.640;37.532;2023-04-02T08:09:57;98289.50;;;7.86;67.22
43298;BME280;28892;55.640;37.532;2023-04-02T08:12:48;98287.88;;;8.06;66.07
43298;BME280;28892;55.640;37.532;2023-04-02T08:15:15;98277.25;;;7.78;66.56
43298;BME280;28892;55.640;37.532;2023-04-02T08:17:42;98281.47;;;7.57;67.35
43298;BME280;28892;55.640;37.532;2023-04-02T08:20:18;98298.25;;;7.86;67.09
43298;BME280;28892;55.640;37.532;2023-04-02T08:22:46;98285.50;;;7.90;66.66
43298;BME280;28892;55.640;37.532;2023-04-02T08:25:13;98283.13;;;7.80;66.37
43298;BME280;28892;55.640;37.532;2023-04-02T08:27:39;98297.09;;;7.74;66.71
43298;BME280;28892;55.640;37.532;2023-04-02T08:30:11;98286.09;;;7.18;68.49
43298;BME280;28892;55.640;37.532;2023-04-02T08:32:37;98292.28;;;7.25;68.95
43298;BME280;28892;55.640;37.532;2023-04-02T08:35:09;98295.88;;;7.54;68.35
43298;BME280;28892;55.640;37.532;2023-04-02T08:37:39;98292.28;;;7.25;68.91
43298;BME280;28892;55.640;37.532;2023-04-02T08:43:39;98284.84;;;7.66;67.87
43298;BME280;28892;55.640;37.532;2023-04-02T08:49:20;98306.25;;;7.41;69.35
43298;BME280;28892;55.640;37.532;2023-04-02T08:51:54;98288.53;;;7.35;68.88
43298;BME280;28892;55.640;37.532;2023-04-02T08:54:27;98285.41;;;7.61;67.96
43298;BME280;28892;55.640;37.532;2023-04-02T08:59:58;98290.41;;;7.41;69.55
